sensor_id;sensor_type;location;lat;lon;timestamp;pressure;altitude;pressure_sealevel;temperature;humidity
75006;BME280;63553;51.814;4.600;2024-02-26T00:00:09;100006.19;;;14.06;68.44
75006;BME280;63553;51.814;4.600;2024-02-26T00:02:36;100000.16;;;14.04;68.95
75006;BME280;63553;51.814;4.600;2024-02-26T00:05:05;100004.13;;;14.03;69.62
75006;BME280;63553;51.814;4.600;2024-02-26T00:07:31;99999.88;;;14.09;69.64
75006;BME280;63553;51.814;4.600;2024-02-26T00:09:56;99985.81;;;14.05;69.58
75006;BME280;63553;51.814;4.600;2024-02-26T00:12:21;100000.78;;;14.13;69.92
75006;BME280;63553;51.814;4.600;2024-02-26T00:14:47;99994.00;;;14.14;69.39
75006;BME280;63553;51.814;4.600;2024-02-26T00:17:15;99989.69;;;14.16;69.19
75006;BME280;63553;51.814;4.600;2024-02-26T00:19:40;99994.88;;;14.18;69.68
75006;BME280;63553;51.814;4.600;2024-02-26T00:22:06;100000.91;;;14.20;69.22
75006;BME280;63553;51.814;4.600;2024-02-26T00:24:31;99999.31;;;14.19;69.15
75006;BME280;63553;51.814;4.600;2024-02-26T00:26:56;99999.31;;;14.19;69.27
75006;BME280;63553;51.814;4.600;2024-02-26T00:29:22;99990.47;;;14.17;68.63
75006;BME280;63553;51.814;4.600;2024-02-26T00:31:48;100001.63;;;14.17;68.29
75006;BME280;63553;51.814;4.600;2024-02-26T00:34:13;100003.66;;;14.16;68.73
75006;BME280;63553;51.814;4.600;2024-02-26T00:36:38;99997.69;;;14.18;68.77
75006;BME280;63553;51.814;4.600;2024-02-26T00:39:04;99999.31;;;14.19;69.40
75006;BME280;63553;51.814;4.600;2024-02-26T00:41:29;100005.34;;;14.21;68.74
75006;BME280;63553;51.814;4.600;2024-02-26T00:43:55;100005.25;;;14.17;67.63
75006;BME280;63553;51.814;4.600;2024-02-26T00:46:20;100005.63;;;14.16;68.62
75006;BME280;63553;51.814;4.600;2024-02-26T00:48:45;100012.78;;;14.13;68.94
75006;BME280;63553;51.814;4.600;2024-02-26T00:51:11;100011.97;;;14.13;68.55
75006;BME280;63553;51.814;4.600;2024-02-26T00:53:36;100012.78;;;14.13;67.79
75006;BME280;63553;51.814;4.600;2024-02-26T00:56:01;100011.50;;;14.11;68.31
75006;BME280;63553;51.814;4.600;2024-02-26T00:58:27;100004.75;;;14.12;68.30
75006;BME280;63553;51.814;4.600;2024-02-26T01:00:52;100010.75;;;14.14;68.90
75006;BME280;63553;51.814;4.600;2024-02-26T01:03:18;100017.97;;;14.15;68.66
75006;BME280;63553;51.814;4.600;2024-02-26T01:05:44;100016.81;;;14.16;68.73
75006;BME280;63553;51.814;4.600;2024-02-26T01:08:10;100021.22;;;14.17;68.41
75006;BME280;63553;51.814;4.600;2024-02-26T01:10:35;100020.03;;;14.18;67.78
75006;BME280;63553;51.814;4.600;2024-02-26T01:13:01;100019.63;;;14.16;68.09
75006;BME280;63553;51.814;4.600;2024-02-26T01:15:26;100019.97;;;14.14;67.59
75006;BME280;63553;51.814;4.600;2024-02-26T01:17:52;100025.47;;;14.11;68.11
75006;BME280;63553;51.814;4.600;2024-02-26T01:20:17;100037.84;;;14.10;67.44
75006;BME280;63553;51.814;4.600;2024-02-26T01:22:44;100039.00;;;14.09;67.64
75006;BME280;63553;51.814;4.600;2024-02-26T01:25:09;100032.25;;;14.10;67.88
75006;BME280;63553;51.814;4.600;2024-02-26T01:27:38;100031.88;;;14.11;67.51
75006;BME280;63553;51.814;4.600;2024-02-26T01:30:04;100029.47;;;14.10;67.77
75006;BME280;63553;51.814;4.600;2024-02-26T01:32:30;100028.66;;;14.09;68.05
75006;BME280;63553;51.814;4.600;2024-02-26T01:34:55;100025.03;;;14.09;68.19
75006;BME280;63553;51.814;4.600;2024-02-26T01:37:21;100035.88;;;14.10;69.18
75006;BME280;63553;51.814;4.600;2024-02-26T01:39:46;100040.34;;;14.15;68.22
75006;BME280;63553;51.814;4.600;2024-02-26T01:42:11;100044.31;;;14.14;67.72
75006;BME280;63553;51.814;4.600;2024-02-26T01:44:37;100047.09;;;14.14;68.14
75006;BME280;63553;51.814;4.600;2024-02-26T01:47:05;100058.28;;;14.14;68.18
75006;BME280;63553;51.814;4.600;2024-02-26T01:49:33;100050.28;;;14.12;67.82
75006;BME280;63553;51.814;4.600;2024-02-26T01:52:00;100061.91;;;14.14;68.32
75006;BME280;63553;51.814;4.600;2024-02-26T01:54:26;100070.66;;;14.13;67.47
75006;BME280;63553;51.814;4.600;2024-02-26T01:56:52;100071.81;;;14.12;67.62
75006;BME280;63553;51.814;4.600;2024-02-26T01:59:17;100066.25;;;14.12;66.96
75006;BME280;63553;51.814;4.600;2024-02-26T02:01:44;100066.97;;;14.09;67.45
75006;BME280;63553;51.814;4.600;2024-02-26T02:04:13;100060.56;;;14.08;67.98
75006;BME280;63553;51.814;4.600;2024-02-26T02:06:41;100061.38;;;14.09;67.41
75006;BME280;63553;51.814;4.600;2024-02-26T02:09:08;100062.53;;;14.08;67.61
75006;BME280;63553;51.814;4.600;2024-02-26T02:11:33;100065.34;;;14.08;67.24
75006;BME280;63553;51.814;4.600;2024-02-26T02:13:59;100064.91;;;14.06;67.88
75006;BME280;63553;51.814;4.600;2024-02-26T02:16:24;100063.25;;;14.05;67.35
75006;BME280;63553;51.814;4.600;2024-02-26T02:18:50;100071.66;;;14.05;67.12
75006;BME280;63553;51.814;4.600;2024-02-26T02:21:15;100066.06;;;14.05;67.92
75006;BME280;63553;51.814;4.600;2024-02-26T02:23:40;100068.06;;;14.04;66.93
75006;BME280;63553;51.814;4.600;2024-02-26T02:26:11;100068.41;;;14.03;65.71
75006;BME280;63553;51.814;4.600;2024-02-26T02:28:37;100065.53;;;13.99;66.48
75006;BME280;63553;51.814;4.600;2024-02-26T02:31:03;100069.06;;;13.96;66.64
75006;BME280;63553;51.814;4.600;2024-02-26T02:33:29;100074.22;;;13.94;66.72
75006;BME280;63553;51.814;4.600;2024-02-26T02:35:54;100084.94;;;13.92;66.80
75006;BME280;63553;51.814;4.600;2024-02-26T02:38:20;100081.34;;;13.91;66.40
75006;BME280;63553;51.814;4.600;2024-02-26T02:40:45;100076.19;;;13.93;67.52
75006;BME280;63553;51.814;4.600;2024-02-26T02:43:11;100090.16;;;13.93;66.47
75006;BME280;63553;51.814;4.600;2024-02-26T02:45:36;100088.56;;;13.93;67.03
75006;BME280;63553;51.814;4.600;2024-02-26T02:48:02;100088.09;;;13.90;66.54
75006;BME280;63553;51.814;4.600;2024-02-26T02:50:27;100081.16;;;13.84;66.92
75006;BME280;63553;51.814;4.600;2024-02-26T02:52:54;100093.34;;;13.92;67.50
75006;BME280;63553;51.814;4.600;2024-02-26T02:55:19;100084.13;;;13.91;66.82
75006;BME280;63553;51.814;4.600;2024-02-26T02:57:45;100079.38;;;13.92;66.94
75006;BME280;63553;51.814;4.600;2024-02-26T03:00:11;100078.53;;;13.91;67.68
75006;BME280;63553;51.814;4.600;2024-02-26T03:02:37;100089.44;;;13.97;67.51
75006;BME280;63553;51.814;4.600;2024-02-26T03:05:03;100078.44;;;14.04;69.93
75006;BME280;63553;51.814;4.600;2024-02-26T03:07:28;100091.41;;;14.12;69.82
75006;BME280;63553;51.814;4.600;2024-02-26T03:09:54;100091.56;;;14.19;72.13
75006;BME280;63553;51.814;4.600;2024-02-26T03:12:19;100082.38;;;14.18;70.24
75006;BME280;63553;51.814;4.600;2024-02-26T03:14:45;100089.50;;;14.16;69.57
75006;BME280;63553;51.814;4.600;2024-02-26T03:17:10;100088.41;;;14.20;69.69
75006;BME280;63553;51.814;4.600;2024-02-26T03:19:35;100097.22;;;14.22;69.20
75006;BME280;63553;51.814;4.600;2024-02-26T03:22:01;100095.72;;;14.25;69.17
75006;BME280;63553;51.814;4.600;2024-02-26T03:24:26;100092.63;;;14.30;69.41
75006;BME280;63553;51.814;4.600;2024-02-26T03:26:51;100097.50;;;14.33;68.51
75006;BME280;63553;51.814;4.600;2024-02-26T03:29:17;100099.16;;;14.34;68.68
75006;BME280;63553;51.814;4.600;2024-02-26T03:31:42;100099.94;;;14.34;67.79
75006;BME280;63553;51.814;4.600;2024-02-26T03:34:08;100096.56;;;14.29;68.09
75006;BME280;63553;51.814;4.600;2024-02-26T03:36:34;100100.81;;;14.38;68.28
75006;BME280;63553;51.814;4.600;2024-02-26T03:38:59;100099.19;;;14.37;67.91
75006;BME280;63553;51.814;4.600;2024-02-26T03:41:24;100098.41;;;14.37;67.96
75006;BME280;63553;51.814;4.600;2024-02-26T03:43:50;100097.94;;;14.35;68.43
75006;BME280;63553;51.814;4.600;2024-02-26T03:46:15;100103.53;;;14.35;68.56
75006;BME280;63553;51.814;4.600;2024-02-26T03:48:41;100105.53;;;14.34;67.84
75006;BME280;63553;51.814;4.600;2024-02-26T03:51:08;100099.84;;;14.31;68.23
75006;BME280;63553;51.814;4.600;2024-02-26T03:53:34;100097.41;;;14.29;68.77
75006;BME280;63553;51.814;4.600;2024-02-26T03:56:03;100101.81;;;14.30;68.60
75006;BME280;63553;51.814;4.600;2024-02-26T03:58:29;100095.41;;;14.30;69.11
75006;BME280;63553;51.814;4.600;2024-02-26T04:00:54;100106.22;;;14.31;68.12
75006;BME280;63553;51.814;4.600;2024-02-26T04:03:19;100104.63;;;14.30;68.19
75006;BME280;63553;51.814;4.600;2024-02-26T04:05:44;100110.56;;;14.29;68.68
75006;BME280;63553;51.814;4.600;2024-02-26T04:08:10;100120.16;;;14.28;68.10
75006;BME280;63553;51.814;4.600;2024-02-26T04:10:36;100128.06;;;14.26;68.38
75006;BME280;63553;51.814;4.600;2024-02-26T04:13:04;100121.31;;;14.27;68.17
75006;BME280;63553;51.814;4.600;2024-02-26T04:15:29;100130.03;;;14.25;68.13
75006;BME280;63553;51.814;4.600;2024-02-26T04:17:55;100124.44;;;14.25;68.65
75006;BME280;63553;51.814;4.600;2024-02-26T04:20:21;100125.66;;;14.24;68.46
75006;BME280;63553;51.814;4.600;2024-02-26T04:22:46;100126.91;;;14.27;68.73
75006;BME280;63553;51.814;4.600;2024-02-26T04:25:11;100122.94;;;14.28;68.81
75006;BME280;63553;51.814;4.600;2024-02-26T04:27:37;100131.31;;;14.28;68.26
75006;BME280;63553;51.814;4.600;2024-02-26T04:30:04;100125.28;;;14.26;68.74
75006;BME280;63553;51.814;4.600;2024-02-26T04:32:29;100126.91;;;14.27;68.46
75006;BME280;63553;51.814;4.600;2024-02-26T04:34:55;100128.06;;;14.26;68.85
75006;BME280;63553;51.814;4.600;2024-02-26T04:37:20;100122.47;;;14.26;68.52
75006;BME280;63553;51.814;4.600;2024-02-26T04:39:45;100130.03;;;14.25;68.53
75006;BME280;63553;51.814;4.600;2024-02-26T04:42:10;100126.47;;;14.25;68.98
75006;BME280;63553;51.814;4.600;2024-02-26T04:44:36;100127.97;;;14.22;67.99
75006;BME280;63553;51.814;4.600;2024-02-26T04:47:01;100118.28;;;14.16;67.47
75006;BME280;63553;51.814;4.600;2024-02-26T04:49:26;100137.47;;;14.18;68.00
75006;BME280;63553;51.814;4.600;2024-02-26T04:51:52;100139.81;;;14.16;67.81
75006;BME280;63553;51.814;4.600;2024-02-26T04:54:17;100138.28;;;14.18;68.19
75006;BME280;63553;51.814;4.600;2024-02-26T04:56:43;100137.03;;;14.16;68.19
75006;BME280;63553;51.814;4.600;2024-02-26T04:59:09;100137.75;;;14.13;68.33
75006;BME280;63553;51.814;4.600;2024-02-26T05:01:34;100144.50;;;14.12;68.05
75006;BME280;63553;51.814;4.600;2024-02-26T05:04:01;100146.50;;;14.11;68.61
75006;BME280;63553;51.814;4.600;2024-02-26T05:06:28;100147.69;;;14.10;68.88
75006;BME280;63553;51.814;4.600;2024-02-26T05:08:53;100153.72;;;14.12;68.54
75006;BME280;63553;51.814;4.600;2024-02-26T05:11:19;100162.53;;;14.14;69.31
75006;BME280;63553;51.814;4.600;2024-02-26T05:13:44;100156.22;;;14.17;69.31
75006;BME280;63553;51.814;4.600;2024-02-26T05:16:10;100157.84;;;14.18;68.55
75006;BME280;63553;51.814;4.600;2024-02-26T05:18:36;100160.66;;;14.18;68.93
75006;BME280;63553;51.814;4.600;2024-02-26T05:21:01;100158.19;;;14.17;68.20
75006;BME280;63553;51.814;4.600;2024-02-26T05:23:28;100165.81;;;14.16;68.21
75006;BME280;63553;51.814;4.600;2024-02-26T05:25:54;100165.72;;;14.13;68.10
75006;BME280;63553;51.814;4.600;2024-02-26T05:28:19;100168.50;;;14.13;68.75
75006;BME280;63553;51.814;4.600;2024-02-26T05:30:45;100177.34;;;14.15;68.30
75006;BME280;63553;51.814;4.600;2024-02-26T05:33:11;100185.72;;;14.15;68.67
75006;BME280;63553;51.814;4.600;2024-02-26T05:35:37;100180.13;;;14.15;68.30
75006;BME280;63553;51.814;4.600;2024-02-26T05:38:02;100186.88;;;14.14;68.21
75006;BME280;63553;51.814;4.600;2024-02-26T05:40:28;100188.44;;;14.11;67.96
75006;BME280;63553;51.814;4.600;2024-02-26T05:42:54;100188.91;;;14.13;68.61
75006;BME280;63553;51.814;4.600;2024-02-26T05:45:19;100195.66;;;14.12;67.97
75006;BME280;63553;51.814;4.600;2024-02-26T05:47:44;100197.63;;;14.12;68.15
75006;BME280;63553;51.814;4.600;2024-02-26T05:50:10;100191.22;;;14.11;68.00
75006;BME280;63553;51.814;4.600;2024-02-26T05:52:36;100203.22;;;14.12;68.28
75006;BME280;63553;51.814;4.600;2024-02-26T05:55:03;100213.16;;;14.09;67.85
75006;BME280;63553;51.814;4.600;2024-02-26T05:57:28;100213.50;;;14.08;67.08
75006;BME280;63553;51.814;4.600;2024-02-26T05:59:53;100213.78;;;14.03;67.94
75006;BME280;63553;51.814;4.600;2024-02-26T06:02:19;100218.44;;;13.99;67.62
75006;BME280;63553;51.814;4.600;2024-02-26T06:04:44;100234.50;;;14.02;67.18
75006;BME280;63553;51.814;4.600;2024-02-26T06:07:09;100234.88;;;14.00;67.92
75006;BME280;63553;51.814;4.600;2024-02-26T06:09:35;100242.44;;;14.00;67.69
75006;BME280;63553;51.814;4.600;2024-02-26T06:12:00;100243.59;;;13.99;68.26
75006;BME280;63553;51.814;4.600;2024-02-26T06:14:25;100253.63;;;14.00;68.55
75006;BME280;63553;51.814;4.600;2024-02-26T06:16:50;100262.00;;;14.00;68.29
75006;BME280;63553;51.814;4.600;2024-02-26T06:19:16;100251.19;;;13.98;67.58
75006;BME280;63553;51.814;4.600;2024-02-26T06:21:41;100247.59;;;13.98;68.30
75006;BME280;63553;51.814;4.600;2024-02-26T06:24:06;100258.78;;;13.98;68.81
75006;BME280;63553;51.814;4.600;2024-02-26T06:26:32;100253.28;;;14.01;69.08
75006;BME280;63553;51.814;4.600;2024-02-26T06:28:58;100268.97;;;14.06;69.07
75006;BME280;63553;51.814;4.600;2024-02-26T06:31:24;100263.75;;;14.04;68.79
75006;BME280;63553;51.814;4.600;2024-02-26T06:33:49;100258.06;;;14.01;69.44
75006;BME280;63553;51.814;4.600;2024-02-26T06:36:17;100275.47;;;14.10;70.18
75006;BME280;63553;51.814;4.600;2024-02-26T06:38:43;100278.69;;;14.12;69.38
75006;BME280;63553;51.814;4.600;2024-02-26T06:41:08;100287.91;;;14.12;68.83
75006;BME280;63553;51.814;4.600;2024-02-26T06:43:34;100279.88;;;14.11;69.95
75006;BME280;63553;51.814;4.600;2024-02-26T06:45:59;100285.09;;;14.12;68.82
75006;BME280;63553;51.814;4.600;2024-02-26T06:48:24;100285.44;;;14.11;69.18
75006;BME280;63553;51.814;4.600;2024-02-26T06:50:50;100288.63;;;14.09;68.91
75006;BME280;63553;51.814;4.600;2024-02-26T06:53:15;100292.13;;;14.06;68.92
75006;BME280;63553;51.814;4.600;2024-02-26T06:55:41;100302.50;;;14.06;68.86
75006;BME280;63553;51.814;4.600;2024-02-26T06:58:07;100313.25;;;14.04;69.83
75006;BME280;63553;51.814;4.600;2024-02-26T07:00:33;100310.88;;;14.06;69.95
75006;BME280;63553;51.814;4.600;2024-02-26T07:02:58;100318.56;;;14.09;69.41
75006;BME280;63553;51.814;4.600;2024-02-26T07:05:23;100319.00;;;14.11;69.00
75006;BME280;63553;51.814;4.600;2024-02-26T07:07:49;100315.75;;;14.09;69.04
75006;BME280;63553;51.814;4.600;2024-02-26T07:10:14;100326.13;;;14.08;68.56
75006;BME280;63553;51.814;4.600;2024-02-26T07:12:39;100325.69;;;14.06;68.54
75006;BME280;63553;51.814;4.600;2024-02-26T07:15:05;100328.81;;;14.05;68.50
75006;BME280;63553;51.814;4.600;2024-02-26T07:17:33;100329.19;;;14.03;68.61
75006;BME280;63553;51.814;4.600;2024-02-26T07:19:59;100338.84;;;14.06;69.75
75006;BME280;63553;51.814;4.600;2024-02-26T07:22:24;100342.72;;;14.17;69.45
75006;BME280;63553;51.814;4.600;2024-02-26T07:24:50;100350.41;;;14.20;69.00
75006;BME280;63553;51.814;4.600;2024-02-26T07:27:15;100348.44;;;14.20;68.72
75006;BME280;63553;51.814;4.600;2024-02-26T07:29:42;100345.63;;;14.20;68.81
75006;BME280;63553;51.814;4.600;2024-02-26T07:32:08;100344.81;;;14.20;68.40
75006;BME280;63553;51.814;4.600;2024-02-26T07:34:33;100349.13;;;14.17;68.58
75006;BME280;63553;51.814;4.600;2024-02-26T07:36:59;100349.50;;;14.16;68.34
75006;BME280;63553;51.814;4.600;2024-02-26T07:39:24;100351.13;;;14.17;68.83
75006;BME280;63553;51.814;4.600;2024-02-26T07:41:50;100347.88;;;14.15;68.44
75006;BME280;63553;51.814;4.600;2024-02-26T07:44:18;100356.63;;;14.13;68.28
75006;BME280;63553;51.814;4.600;2024-02-26T07:46:43;100359.78;;;14.12;68.72
75006;BME280;63553;51.814;4.600;2024-02-26T07:49:09;100358.50;;;14.09;68.87
75006;BME280;63553;51.814;4.600;2024-02-26T07:51:34;100366.53;;;14.11;69.52
75006;BME280;63553;51.814;4.600;2024-02-26T07:54:00;100371.78;;;14.12;69.59
75006;BME280;63553;51.814;4.600;2024-02-26T07:56:25;100374.69;;;14.16;69.13
75006;BME280;63553;51.814;4.600;2024-02-26T07:58:51;100375.13;;;14.18;69.29
75006;BME280;63553;51.814;4.600;2024-02-26T08:01:16;100380.72;;;14.18;69.09
75006;BME280;63553;51.814;4.600;2024-02-26T08:03:42;100386.31;;;14.18;69.32
75006;BME280;63553;51.814;4.600;2024-02-26T08:06:10;100385.88;;;14.16;69.46
75006;BME280;63553;51.814;4.600;2024-02-26T08:08:36;100400.28;;;14.18;68.69
75006;BME280;63553;51.814;4.600;2024-02-26T08:11:01;100395.06;;;14.16;67.97
75006;BME280;63553;51.814;4.600;2024-02-26T08:13:26;100400.56;;;14.13;68.82
75006;BME280;63553;51.814;4.600;2024-02-26T08:15:52;100404.50;;;14.12;69.25
75006;BME280;63553;51.814;4.600;2024-02-26T08:18:17;100418.47;;;14.12;69.43
75006;BME280;63553;51.814;4.600;2024-02-26T08:20:43;100413.34;;;14.14;68.56
75006;BME280;63553;51.814;4.600;2024-02-26T08:23:08;100430.13;;;14.14;69.13
75006;BME280;63553;51.814;4.600;2024-02-26T08:25:34;100425.00;;;14.16;68.76
75006;BME280;63553;51.814;4.600;2024-02-26T08:27:59;100430.50;;;14.12;68.36
75006;BME280;63553;51.814;4.600;2024-02-26T08:30:24;100436.06;;;14.12;69.12
75006;BME280;63553;51.814;4.600;2024-02-26T08:32:50;100432.47;;;14.12;69.02
75006;BME280;63553;51.814;4.600;2024-02-26T08:35:16;100434.81;;;14.10;68.52
75006;BME280;63553;51.814;4.600;2024-02-26T08:37:44;100443.66;;;14.12;69.28
75006;BME280;63553;51.814;4.600;2024-02-26T08:40:10;100447.25;;;14.12;68.97
75006;BME280;63553;51.814;4.600;2024-02-26T08:42:35;100445.28;;;14.13;68.69
75006;BME280;63553;51.814;4.600;2024-02-26T08:45:02;100447.47;;;14.19;68.61
75006;BME280;63553;51.814;4.600;2024-02-26T08:47:27;100452.81;;;14.24;68.84
75006;BME280;63553;51.814;4.600;2024-02-26T08:49:53;100455.59;;;14.24;68.38
75006;BME280;63553;51.814;4.600;2024-02-26T08:52:19;100441.78;;;14.16;68.43
75006;BME280;63553;51.814;4.600;2024-02-26T08:54:44;100458.66;;;14.19;67.74
75006;BME280;63553;51.814;4.600;2024-02-26T08:57:10;100475.78;;;14.18;68.30
75006;BME280;63553;51.814;4.600;2024-02-26T08:59:35;100477.75;;;14.17;68.41
75006;BME280;63553;51.814;4.600;2024-02-26T09:02:00;100476.84;;;14.13;67.75
75006;BME280;63553;51.814;4.600;2024-02-26T09:04:26;100470.44;;;14.13;68.26
75006;BME280;63553;51.814;4.600;2024-02-26T09:06:52;100474.41;;;14.12;68.25
75006;BME280;63553;51.814;4.600;2024-02-26T09:09:17;100486.75;;;14.11;68.84
75006;BME280;63553;51.814;4.600;2024-02-26T09:11:43;100486.75;;;14.11;69.16
75006;BME280;63553;51.814;4.600;2024-02-26T09:14:08;100485.94;;;14.10;68.28
75006;BME280;63553;51.814;4.600;2024-02-26T09:16:34;100486.66;;;14.07;68.63
75006;BME280;63553;51.814;4.600;2024-02-26T09:18:59;100494.69;;;14.09;69.01
75006;BME280;63553;51.814;4.600;2024-02-26T09:21:24;100496.31;;;14.10;69.03
75006;BME280;63553;51.814;4.600;2024-02-26T09:23:50;100497.94;;;14.11;67.76
75006;BME280;63553;51.814;4.600;2024-02-26T09:26:16;100498.63;;;14.08;68.45
75006;BME280;63553;51.814;4.600;2024-02-26T09:28:42;100511.81;;;14.07;68.21
75006;BME280;63553;51.814;4.600;2024-02-26T09:31:07;100502.63;;;14.07;68.35
75006;BME280;63553;51.814;4.600;2024-02-26T09:33:33;100518.91;;;14.05;68.18
75006;BME280;63553;51.814;4.600;2024-02-26T09:35:58;100515.66;;;14.03;68.86
75006;BME280;63553;51.814;4.600;2024-02-26T09:38:26;100517.75;;;14.06;69.09
75006;BME280;63553;51.814;4.600;2024-02-26T09:40:51;100519.28;;;14.03;69.00
75006;BME280;63553;51.814;4.600;2024-02-26T09:43:17;100535.22;;;14.03;69.39
75006;BME280;63553;51.814;4.600;2024-02-26T09:45:47;100535.13;;;13.99;69.05
75006;BME280;63553;51.814;4.600;2024-02-26T09:48:14;100534.28;;;13.99;68.86
75006;BME280;63553;51.814;4.600;2024-02-26T09:50:42;100537.78;;;13.96;69.56
75006;BME280;63553;51.814;4.600;2024-02-26T09:53:08;100545.41;;;13.95;69.13
75006;BME280;63553;51.814;4.600;2024-02-26T09:55:35;100540.13;;;13.93;69.39
75006;BME280;63553;51.814;4.600;2024-02-26T09:58:01;100548.53;;;13.93;69.90
75006;BME280;63553;51.814;4.600;2024-02-26T10:00:30;100570.53;;;13.95;69.19
75006;BME280;63553;51.814;4.600;2024-02-26T10:03:03;100558.44;;;13.91;69.58
75006;BME280;63553;51.814;4.600;2024-02-26T10:05:29;100560.88;;;13.93;69.79
75006;BME280;63553;51.814;4.600;2024-02-26T10:07:56;100561.34;;;13.95;69.79
75006;BME280;63553;51.814;4.600;2024-02-26T10:10:23;100580.53;;;13.96;69.79
75006;BME280;63553;51.814;4.600;2024-02-26T10:12:48;100581.59;;;13.91;69.40
75006;BME280;63553;51.814;4.600;2024-02-26T10:15:14;100586.03;;;13.93;69.36
75006;BME280;63553;51.814;4.600;2024-02-26T10:17:40;100587.19;;;13.91;69.79
75006;BME280;63553;51.814;4.600;2024-02-26T10:22:38;100599.19;;;13.92;69.18
75006;BME280;63553;51.814;4.600;2024-02-26T10:25:04;100607.09;;;13.90;69.83
75006;BME280;63553;51.814;4.600;2024-02-26T10:27:30;100607.09;;;13.90;69.77
75006;BME280;63553;51.814;4.600;2024-02-26T10:29:56;100609.44;;;13.88;69.97
75006;BME280;63553;51.814;4.600;2024-02-26T10:32:22;100613.06;;;13.88;69.71
75006;BME280;63553;51.814;4.600;2024-02-26T10:34:47;100620.50;;;13.84;69.37
75006;BME280;63553;51.814;4.600;2024-02-26T10:37:12;100621.69;;;13.83;69.24
75006;BME280;63553;51.814;4.600;2024-02-26T10:39:39;100629.56;;;13.81;68.42
75006;BME280;63553;51.814;4.600;2024-02-26T10:42:04;100630.28;;;13.78;69.44
75006;BME280;63553;51.814;4.600;2024-02-26T10:44:34;100634.25;;;13.77;69.81
75006;BME280;63553;51.814;4.600;2024-02-26T10:46:59;100643.78;;;13.76;69.43
75006;BME280;63553;51.814;4.600;2024-02-26T10:49:25;100641.00;;;13.76;69.40
75006;BME280;63553;51.814;4.600;2024-02-26T10:51:55;100651.03;;;13.77;69.23
75006;BME280;63553;51.814;4.600;2024-02-26T10:54:24;100638.19;;;13.76;70.05
75006;BME280;63553;51.814;4.600;2024-02-26T10:56:51;100651.81;;;13.78;69.96
75006;BME280;63553;51.814;4.600;2024-02-26T10:59:34;100649.38;;;13.76;70.54
75006;BME280;63553;51.814;4.600;2024-02-26T11:02:00;100650.31;;;13.80;70.15
75006;BME280;63553;51.814;4.600;2024-02-26T11:04:26;100663.47;;;13.80;69.56
75006;BME280;63553;51.814;4.600;2024-02-26T11:06:54;100661.50;;;13.80;69.62
75006;BME280;63553;51.814;4.600;2024-02-26T11:09:22;100665.44;;;13.79;70.23
75006;BME280;63553;51.814;4.600;2024-02-26T11:11:48;100670.22;;;13.79;69.47
75006;BME280;63553;51.814;4.600;2024-02-26T11:14:15;100671.38;;;13.78;69.19
75006;BME280;63553;51.814;4.600;2024-02-26T11:16:41;100684.88;;;13.76;69.19
75006;BME280;63553;51.814;4.600;2024-02-26T11:19:09;100683.59;;;13.73;69.08
75006;BME280;63553;51.814;4.600;2024-02-26T11:21:35;100688.38;;;13.73;69.44
75006;BME280;63553;51.814;4.600;2024-02-26T11:24:07;100697.13;;;13.71;69.55
75006;BME280;63553;51.814;4.600;2024-02-26T11:26:37;100702.34;;;13.73;69.58
75006;BME280;63553;51.814;4.600;2024-02-26T11:29:05;100704.81;;;13.74;69.48
75006;BME280;63553;51.814;4.600;2024-02-26T11:31:33;100701.19;;;13.74;70.50
75006;BME280;63553;51.814;4.600;2024-02-26T11:33:59;100702.00;;;13.74;70.04
75006;BME280;63553;51.814;4.600;2024-02-26T11:36:24;100710.84;;;13.76;69.55
75006;BME280;63553;51.814;4.600;2024-02-26T11:38:50;100720.38;;;13.75;69.55
75006;BME280;63553;51.814;4.600;2024-02-26T11:41:18;100712.81;;;13.76;69.72
75006;BME280;63553;51.814;4.600;2024-02-26T11:43:57;100707.13;;;13.72;70.00
75006;BME280;63553;51.814;4.600;2024-02-26T11:46:31;100713.97;;;13.75;69.84
75006;BME280;63553;51.814;4.600;2024-02-26T11:51:51;100734.72;;;13.74;69.98
75006;BME280;63553;51.814;4.600;2024-02-26T11:54:56;100720.25;;;13.72;69.83
75006;BME280;63553;51.814;4.600;2024-02-26T11:57:30;100731.09;;;13.73;69.93
75006;BME280;63553;51.814;4.600;2024-02-26T11:59:57;100738.34;;;13.74;69.68
75006;BME280;63553;51.814;4.600;2024-02-26T12:02:46;100730.75;;;13.75;69.76
75006;BME280;63553;51.814;4.600;2024-02-26T12:05:16;100729.13;;;13.74;69.72
75006;BME280;63553;51.814;4.600;2024-02-26T12:07:43;100737.66;;;13.77;69.92
75006;BME280;63553;51.814;4.600;2024-02-26T12:13:00;100739.13;;;13.75;69.90
75006;BME280;63553;51.814;4.600;2024-02-26T12:15:31;100742.41;;;13.77;69.67
75006;BME280;63553;51.814;4.600;2024-02-26T12:17:58;100745.22;;;13.77;69.43
75006;BME280;63553;51.814;4.600;2024-02-26T12:20:23;100756.38;;;13.77;69.85
75006;BME280;63553;51.814;4.600;2024-02-26T12:22:49;100750.44;;;13.78;69.52
75006;BME280;63553;51.814;4.600;2024-02-26T12:25:20;100758.00;;;13.78;69.83
75006;BME280;63553;51.814;4.600;2024-02-26T12:27:46;100757.66;;;13.79;69.23
75006;BME280;63553;51.814;4.600;2024-02-26T12:30:12;100762.44;;;13.79;69.75
75006;BME280;63553;51.814;4.600;2024-02-26T12:32:37;100768.38;;;13.77;69.51
75006;BME280;63553;51.814;4.600;2024-02-26T12:35:04;100758.34;;;13.76;69.46
75006;BME280;63553;51.814;4.600;2024-02-26T12:37:30;100779.19;;;13.79;68.91
75006;BME280;63553;51.814;4.600;2024-02-26T12:39:55;100773.97;;;13.77;69.39
75006;BME280;63553;51.814;4.600;2024-02-26T12:42:21;100774.75;;;13.78;69.24
75006;BME280;63553;51.814;4.600;2024-02-26T12:44:46;100790.06;;;13.80;69.91
75006;BME280;63553;51.814;4.600;2024-02-26T12:47:12;100788.53;;;13.83;69.63
75006;BME280;63553;51.814;4.600;2024-02-26T12:49:42;100789.38;;;13.83;69.55
75006;BME280;63553;51.814;4.600;2024-02-26T12:52:10;100792.94;;;13.84;69.81